sensor_id;sensor_type;location;lat;lon;timestamp;temperature;humidity
59855;DHT22;45732;52.850;6.896;2023-06-14T04:22:56;15.30;95.60
59855;DHT22;45732;52.850;6.896;2023-06-14T04:28:49;15.30;96.00
59855;DHT22;45732;52.850;6.896;2023-06-14T04:31:15;15.40;95.90
59855;DHT22;45732;52.850;6.896;2023-06-14T04:33:42;15.40;96.00
59855;DHT22;45732;52.850;6.896;2023-06-14T04:36:12;15.50;96.20
59855;DHT22;45732;52.850;6.896;2023-06-14T04:38:39;15.50;96.20
59855;DHT22;45732;52.850;6.896;2023-06-14T04:41:04;15.60;96.20
59855;DHT22;45732;52.850;6.896;2023-06-14T04:43:31;15.60;96.20
59855;DHT22;45732;52.850;6.896;2023-06-14T04:46:02;15.70;96.10
59855;DHT22;45732;52.850;6.896;2023-06-14T04:48:28;15.80;96.10
59855;DHT22;45732;52.850;6.896;2023-06-14T04:50:54;15.80;96.10
59855;DHT22;45732;52.850;6.896;2023-06-14T04:53:20;15.90;96.10
59855;DHT22;45732;52.850;6.896;2023-06-14T04:55:48;15.90;96.00
59855;DHT22;45732;52.850;6.896;2023-06-14T04:58:14;16.00;96.00
59855;DHT22;45732;52.850;6.896;2023-06-14T05:00:39;16.10;96.00
59855;DHT22;45732;52.850;6.896;2023-06-14T05:03:07;16.10;96.00
59855;DHT22;45732;52.850;6.896;2023-06-14T05:05:34;16.20;95.90
59855;DHT22;45732;52.850;6.896;2023-06-14T05:07:59;16.30;95.80
59855;DHT22;45732;52.850;6.896;2023-06-14T05:10:25;16.40;95.80
59855;DHT22;45732;52.850;6.896;2023-06-14T05:12:51;16.50;95.80
59855;DHT22;45732;52.850;6.896;2023-06-14T05:15:18;16.60;95.70
59855;DHT22;45732;52.850;6.896;2023-06-14T05:17:46;16.70;95.50
59855;DHT22;45732;52.850;6.896;2023-06-14T05:20:21;16.80;95.60
59855;DHT22;45732;52.850;6.896;2023-06-14T05:22:48;16.80;95.10
59855;DHT22;45732;52.850;6.896;2023-06-14T05:25:17;16.90;95.10
59855;DHT22;45732;52.850;6.896;2023-06-14T05:27:43;17.00;95.10
59855;DHT22;45732;52.850;6.896;2023-06-14T05:30:09;17.00;94.90
59855;DHT22;45732;52.850;6.896;2023-06-14T05:32:35;17.10;94.70
59855;DHT22;45732;52.850;6.896;2023-06-14T05:35:01;17.20;94.70
59855;DHT22;45732;52.850;6.896;2023-06-14T05:37:26;17.30;94.50
59855;DHT22;45732;52.850;6.896;2023-06-14T05:39:52;17.30;94.50
59855;DHT22;45732;52.850;6.896;2023-06-14T05:42:18;17.40;94.40
59855;DHT22;45732;52.850;6.896;2023-06-14T05:44:43;17.40;94.30
59855;DHT22;45732;52.850;6.896;2023-06-14T05:47:09;17.50;94.20
59855;DHT22;45732;52.850;6.896;2023-06-14T05:49:35;17.50;94.00
59855;DHT22;45732;52.850;6.896;2023-06-14T05:52:00;17.60;93.90
59855;DHT22;45732;52.850;6.896;2023-06-14T05:54:26;17.60;93.70
59855;DHT22;45732;52.850;6.896;2023-06-14T05:56:52;17.70;93.70
59855;DHT22;45732;52.850;6.896;2023-06-14T05:59:17;17.80;93.70
59855;DHT22;45732;52.850;6.896;2023-06-14T06:01:43;17.80;93.50
59855;DHT22;45732;52.850;6.896;2023-06-14T06:04:09;17.90;93.50
59855;DHT22;45732;52.850;6.896;2023-06-14T06:06:34;18.00;93.40
59855;DHT22;45732;52.850;6.896;2023-06-14T06:09:01;18.10;93.30
59855;DHT22;45732;52.850;6.896;2023-06-14T06:11:27;18.20;93.20
59855;DHT22;45732;52.850;6.896;2023-06-14T06:13:53;18.30;93.20
59855;DHT22;45732;52.850;6.896;2023-06-14T06:16:18;18.30;92.90
59855;DHT22;45732;52.850;6.896;2023-06-14T06:18:44;18.40;92.90
59855;DHT22;45732;52.850;6.896;2023-06-14T06:21:10;18.50;92.70
59855;DHT22;45732;52.850;6.896;2023-06-14T06:23:35;18.50;92.70
59855;DHT22;45732;52.850;6.896;2023-06-14T06:26:02;18.60;92.50
59855;DHT22;45732;52.850;6.896;2023-06-14T06:28:28;18.70;92.40
59855;DHT22;45732;52.850;6.896;2023-06-14T06:30:54;18.80;92.30
59855;DHT22;45732;52.850;6.896;2023-06-14T06:33:20;18.80;92.20
59855;DHT22;45732;52.850;6.896;2023-06-14T06:35:45;18.80;92.10
59855;DHT22;45732;52.850;6.896;2023-06-14T06:38:11;18.90;92.20
59855;DHT22;45732;52.850;6.896;2023-06-14T06:40:37;19.00;92.10
59855;DHT22;45732;52.850;6.896;2023-06-14T06:43:03;19.00;91.80
59855;DHT22;45732;52.850;6.896;2023-06-14T06:45:28;19.10;91.70
59855;DHT22;45732;52.850;6.896;2023-06-14T06:47:54;19.20;91.70
59855;DHT22;45732;52.850;6.896;2023-06-14T06:50:21;19.20;91.60
59855;DHT22;45732;52.850;6.896;2023-06-14T06:52:48;19.30;91.50
59855;DHT22;45732;52.850;6.896;2023-06-14T06:55:14;19.30;91.40
59855;DHT22;45732;52.850;6.896;2023-06-14T06:57:40;19.30;91.10
59855;DHT22;45732;52.850;6.896;2023-06-14T07:00:07;19.40;91.00
59855;DHT22;45732;52.850;6.896;2023-06-14T07:02:36;19.50;91.20
59855;DHT22;45732;52.850;6.896;2023-06-14T07:05:02;19.50;91.30
59855;DHT22;45732;52.850;6.896;2023-06-14T07:07:28;19.60;91.20
59855;DHT22;45732;52.850;6.896;2023-06-14T07:09:53;19.70;90.90
59855;DHT22;45732;52.850;6.896;2023-06-14T07:12:19;19.70;90.70
59855;DHT22;45732;52.850;6.896;2023-06-14T07:14:45;19.80;90.90
59855;DHT22;45732;52.850;6.896;2023-06-14T07:17:11;19.80;90.80
59855;DHT22;45732;52.850;6.896;2023-06-14T07:19:36;19.90;90.70
59855;DHT22;45732;52.850;6.896;2023-06-14T07:22:02;19.90;90.60
59855;DHT22;45732;52.850;6.896;2023-06-14T07:24:28;20.00;90.50
59855;DHT22;45732;52.850;6.896;2023-06-14T07:26:54;20.00;90.40
59855;DHT22;45732;52.850;6.896;2023-06-14T07:29:20;20.10;90.40
59855;DHT22;45732;52.850;6.896;2023-06-14T07:31:46;20.20;90.40
59855;DHT22;45732;52.850;6.896;2023-06-14T07:34:12;20.20;90.30
59855;DHT22;45732;52.850;6.896;2023-06-14T07:36:38;20.20;89.60
59855;DHT22;45732;52.850;6.896;2023-06-14T07:39:04;20.40;89.50
59855;DHT22;45732;52.850;6.896;2023-06-14T07:41:31;20.40;88.40
59855;DHT22;45732;52.850;6.896;2023-06-14T07:43:57;20.40;88.20
59855;DHT22;45732;52.850;6.896;2023-06-14T07:46:23;20.40;88.10
59855;DHT22;45732;52.850;6.896;2023-06-14T07:48:48;20.50;88.20
59855;DHT22;45732;52.850;6.896;2023-06-14T07:51:14;20.60;87.40
59855;DHT22;45732;52.850;6.896;2023-06-14T07:53:40;20.60;87.20
59855;DHT22;45732;52.850;6.896;2023-06-14T07:56:06;20.60;86.90
59855;DHT22;45732;52.850;6.896;2023-06-14T07:58:32;20.70;87.10
59855;DHT22;45732;52.850;6.896;2023-06-14T08:00:57;20.80;87.10
59855;DHT22;45732;52.850;6.896;2023-06-14T08:03:23;20.80;87.00
59855;DHT22;45732;52.850;6.896;2023-06-14T08:05:49;20.90;87.10
59855;DHT22;45732;52.850;6.896;2023-06-14T08:08:15;20.90;86.60
59855;DHT22;45732;52.850;6.896;2023-06-14T08:10:41;21.00;86.40
59855;DHT22;45732;52.850;6.896;2023-06-14T08:13:07;21.00;85.50
59855;DHT22;45732;52.850;6.896;2023-06-14T08:15:34;21.00;85.40
59855;DHT22;45732;52.850;6.896;2023-06-14T08:18:00;21.20;85.90
59855;DHT22;45732;52.850;6.896;2023-06-14T08:20:26;21.20;85.50
59855;DHT22;45732;52.850;6.896;2023-06-14T08:22:52;21.20;85.00
59855;DHT22;45732;52.850;6.896;2023-06-14T08:25:22;21.30;84.70
59855;DHT22;45732;52.850;6.896;2023-06-14T08:27:48;21.30;84.60
59855;DHT22;45732;52.850;6.896;2023-06-14T08:30:14;21.40;84.70
59855;DHT22;45732;52.850;6.896;2023-06-14T08:32:39;21.40;84.30
59855;DHT22;45732;52.850;6.896;2023-06-14T08:35:05;21.50;84.60
59855;DHT22;45732;52.850;6.896;2023-06-14T08:37:32;21.50;84.80
59855;DHT22;45732;52.850;6.896;2023-06-14T08:40:02;21.50;85.00
59855;DHT22;45732;52.850;6.896;2023-06-14T08:42:32;21.70;85.10
59855;DHT22;45732;52.850;6.896;2023-06-14T08:44:58;21.80;84.40
59855;DHT22;45732;52.850;6.896;2023-06-14T08:47:26;21.80;84.10
59855;DHT22;45732;52.850;6.896;2023-06-14T08:49:55;21.90;83.90
59855;DHT22;45732;52.850;6.896;2023-06-14T08:52:24;21.90;83.50
59855;DHT22;45732;52.850;6.896;2023-06-14T08:54:55;21.90;83.20
59855;DHT22;45732;52.850;6.896;2023-06-14T08:57:21;22.00;83.60
59855;DHT22;45732;52.850;6.896;2023-06-14T08:59:47;22.10;83.10
59855;DHT22;45732;52.850;6.896;2023-06-14T09:02:18;22.10;83.40
59855;DHT22;45732;52.850;6.896;2023-06-14T09:04:45;22.20;83.10
59855;DHT22;45732;52.850;6.896;2023-06-14T09:07:11;22.30;83.10
59855;DHT22;45732;52.850;6.896;2023-06-14T09:09:41;22.30;82.90
59855;DHT22;45732;52.850;6.896;2023-06-14T09:12:11;22.40;82.30
59855;DHT22;45732;52.850;6.896;2023-06-14T09:14:38;22.40;81.30
59855;DHT22;45732;52.850;6.896;2023-06-14T09:17:06;22.40;81.60
59855;DHT22;45732;52.850;6.896;2023-06-14T09:19:31;22.50;81.50
59855;DHT22;45732;52.850;6.896;2023-06-14T09:21:57;22.50;80.70
59855;DHT22;45732;52.850;6.896;2023-06-14T09:24:24;22.60;81.20
59855;DHT22;45732;52.850;6.896;2023-06-14T09:26:51;22.60;80.90
59855;DHT22;45732;52.850;6.896;2023-06-14T09:29:18;22.70;80.70
59855;DHT22;45732;52.850;6.896;2023-06-14T09:31:46;22.70;81.10
59855;DHT22;45732;52.850;6.896;2023-06-14T09:34:12;22.80;81.00
59855;DHT22;45732;52.850;6.896;2023-06-14T09:36:39;22.80;80.50
59855;DHT22;45732;52.850;6.896;2023-06-14T09:39:06;22.80;80.00
59855;DHT22;45732;52.850;6.896;2023-06-14T09:41:38;22.80;79.10
59855;DHT22;45732;52.850;6.896;2023-06-14T09:44:06;22.90;79.10
59855;DHT22;45732;52.850;6.896;2023-06-14T09:46:33;22.90;78.80
59855;DHT22;45732;52.850;6.896;2023-06-14T09:48:59;22.90;78.10
59855;DHT22;45732;52.850;6.896;2023-06-14T09:51:26;22.90;78.00
59855;DHT22;45732;52.850;6.896;2023-06-14T09:53:55;23.00;78.60
59855;DHT22;45732;52.850;6.896;2023-06-14T09:56:44;23.10;78.50
59855;DHT22;45732;52.850;6.896;2023-06-14T09:59:10;23.20;77.50
59855;DHT22;45732;52.850;6.896;2023-06-14T10:01:42;23.20;78.10
59855;DHT22;45732;52.850;6.896;2023-06-14T10:04:09;23.30;77.60
59855;DHT22;45732;52.850;6.896;2023-06-14T10:06:45;23.30;78.20
59855;DHT22;45732;52.850;6.896;2023-06-14T10:09:12;23.40;77.30
59855;DHT22;45732;52.850;6.896;2023-06-14T10:11:38;23.50;78.00
59855;DHT22;45732;52.850;6.896;2023-06-14T10:14:10;23.50;77.70
59855;DHT22;45732;52.850;6.896;2023-06-14T10:16:48;23.50;77.60
59855;DHT22;45732;52.850;6.896;2023-06-14T10:22:06;23.50;77.10
59855;DHT22;45732;52.850;6.896;2023-06-14T10:24:44;23.60;77.30
59855;DHT22;45732;52.850;6.896;2023-06-14T10:27:13;23.80;76.00
59855;DHT22;45732;52.850;6.896;2023-06-14T10:32:23;24.00;76.60
59855;DHT22;45732;52.850;6.896;2023-06-14T10:35:06;24.10;76.90
59855;DHT22;45732;52.850;6.896;2023-06-14T10:37:34;24.10;76.40
59855;DHT22;45732;52.850;6.896;2023-06-14T10:40:01;24.00;75.60
59855;DHT22;45732;52.850;6.896;2023-06-14T10:42:31;24.00;75.90
59855;DHT22;45732;52.850;6.896;2023-06-14T10:44:58;24.00;75.30
59855;DHT22;45732;52.850;6.896;2023-06-14T10:47:31;24.00;75.60
59855;DHT22;45732;52.850;6.896;2023-06-14T10:52:31;24.20;75.00
59855;DHT22;45732;52.850;6.896;2023-06-14T10:55:08;24.20;76.00
59855;DHT22;45732;52.850;6.896;2023-06-14T10:57:35;24.20;75.40
59855;DHT22;45732;52.850;6.896;2023-06-14T11:00:03;24.20;75.60
59855;DHT22;45732;52.850;6.896;2023-06-14T11:03:22;24.20;74.90
59855;DHT22;45732;52.850;6.896;2023-06-14T11:05:57;24.30;75.80
59855;DHT22;45732;52.850;6.896;2023-06-14T11:11:08;24.50;75.40
59855;DHT22;45732;52.850;6.896;2023-06-14T11:13:38;24.50;75.30
59855;DHT22;45732;52.850;6.896;2023-06-14T11:16:11;24.50;75.60
59855;DHT22;45732;52.850;6.896;2023-06-14T11:18:37;24.50;75.30
59855;DHT22;45732;52.850;6.896;2023-06-14T11:21:03;24.60;75.60
59855;DHT22;45732;52.850;6.896;2023-06-14T11:23:28;24.70;75.40
59855;DHT22;45732;52.850;6.896;2023-06-14T11:25:54;24.70;75.50
59855;DHT22;45732;52.850;6.896;2023-06-14T11:28:20;24.70;75.20
59855;DHT22;45732;52.850;6.896;2023-06-14T11:30:48;24.80;75.20
59855;DHT22;45732;52.850;6.896;2023-06-14T11:33:17;24.80;75.50
59855;DHT22;45732;52.850;6.896;2023-06-14T11:35:46;24.90;74.60
59855;DHT22;45732;52.850;6.896;2023-06-14T11:38:12;24.80;75.00
59855;DHT22;45732;52.850;6.896;2023-06-14T11:40:39;24.80;75.40
59855;DHT22;45732;52.850;6.896;2023-06-14T11:43:04;24.90;75.40
59855;DHT22;45732;52.850;6.896;2023-06-14T11:45:31;24.90;75.00
59855;DHT22;45732;52.850;6.896;2023-06-14T11:48:00;25.00;74.80
59855;DHT22;45732;52.850;6.896;2023-06-14T11:50:26;25.00;74.70
59855;DHT22;45732;52.850;6.896;2023-06-14T11:52:56;25.10;74.70
59855;DHT22;45732;52.850;6.896;2023-06-14T11:55:23;25.00;74.40
59855;DHT22;45732;52.850;6.896;2023-06-14T11:57:49;25.00;75.10
59855;DHT22;45732;52.850;6.896;2023-06-14T12:00:15;25.10;75.00
59855;DHT22;45732;52.850;6.896;2023-06-14T12:02:42;25.10;74.70
59855;DHT22;45732;52.850;6.896;2023-06-14T12:05:08;25.10;74.90
59855;DHT22;45732;52.850;6.896;2023-06-14T12:07:37;25.10;74.40
59855;DHT22;45732;52.850;6.896;2023-06-14T12:10:07;25.20;74.70
59855;DHT22;45732;52.850;6.896;2023-06-14T12:12:38;25.20;74.40
59855;DHT22;45732;52.850;6.896;2023-06-14T12:15:05;25.30;74.60
59855;DHT22;45732;52.850;6.896;2023-06-14T12:17:35;25.40;74.80
59855;DHT22;45732;52.850;6.896;2023-06-14T12:20:06;25.30;75.10
59855;DHT22;45732;52.850;6.896;2023-06-14T12:22:55;25.20;75.20
59855;DHT22;45732;52.850;6.896;2023-06-14T12:25:33;25.20;75.20
59855;DHT22;45732;52.850;6.896;2023-06-14T12:28:09;25.30;75.20
59855;DHT22;45732;52.850;6.896;2023-06-14T12:30:36;25.30;75.00
59855;DHT22;45732;52.850;6.896;2023-06-14T12:33:05;25.20;74.60
59855;DHT22;45732;52.850;6.896;2023-06-14T12:35:31;25.20;74.60
59855;DHT22;45732;52.850;6.896;2023-06-14T12:37:57;25.20;74.70
59855;DHT22;45732;52.850;6.896;2023-06-14T12:40:23;25.30;74.60
59855;DHT22;45732;52.850;6.896;2023-06-14T12:42:48;25.30;75.00
59855;DHT22;45732;52.850;6.896;2023-06-14T12:45:14;25.20;75.20
59855;DHT22;45732;52.850;6.896;2023-06-14T12:47:40;25.10;74.80
59855;DHT22;45732;52.850;6.896;2023-06-14T12:50:06;24.90;74.70
59855;DHT22;45732;52.850;6.896;2023-06-14T12:52:32;25.00;75.10
59855;DHT22;45732;52.850;6.896;2023-06-14T12:55:04;25.00;74.60
59855;DHT22;45732;52.850;6.896;2023-06-14T12:57:31;24.90;74.50
59855;DHT22;45732;52.850;6.896;2023-06-14T12:59:57;25.00;74.70
59855;DHT22;45732;52.850;6.896;2023-06-14T13:02:22;24.90;75.40
59855;DHT22;45732;52.850;6.896;2023-06-14T13:04:50;25.00;75.00
59855;DHT22;45732;52.850;6.896;2023-06-14T13:07:16;25.00;75.20
59855;DHT22;45732;52.850;6.896;2023-06-14T13:09:42;24.90;74.90
59855;DHT22;45732;52.850;6.896;2023-06-14T13:12:09;24.80;74.70
59855;DHT22;45732;52.850;6.896;2023-06-14T13:14:37;24.80;75.10
59855;DHT22;45732;52.850;6.896;2023-06-14T13:17:03;24.90;75.30
59855;DHT22;45732;52.850;6.896;2023-06-14T13:19:28;24.90;75.70
59855;DHT22;45732;52.850;6.896;2023-06-14T13:21:54;25.00;75.30
59855;DHT22;45732;52.850;6.896;2023-06-14T13:24:20;24.90;75.10
59855;DHT22;45732;52.850;6.896;2023-06-14T13:26:45;24.90;75.20
59855;DHT22;45732;52.850;6.896;2023-06-14T13:29:11;24.90;75.00
59855;DHT22;45732;52.850;6.896;2023-06-14T13:31:37;24.90;74.80
59855;DHT22;45732;52.850;6.896;2023-06-14T13:34:03;24.90;74.50
59855;DHT22;45732;52.850;6.896;2023-06-14T13:36:30;24.80;74.70
59855;DHT22;45732;52.850;6.896;2023-06-14T13:38:55;24.80;75.40
59855;DHT22;45732;52.850;6.896;2023-06-14T13:41:21;24.80;75.60
59855;DHT22;45732;52.850;6.896;2023-06-14T13:43:47;24.60;75.90
59855;DHT22;45732;52.850;6.896;2023-06-14T13:46:13;24.60;75.50
59855;DHT22;45732;52.850;6.896;2023-06-14T13:48:38;24.60;75.50
59855;DHT22;45732;52.850;6.896;2023-06-14T13:51:04;24.60;75.80
59855;DHT22;45732;52.850;6.896;2023-06-14T13:53:30;24.60;75.10
59855;DHT22;45732;52.850;6.896;2023-06-14T13:55:56;24.80;75.60
59855;DHT22;45732;52.850;6.896;2023-06-14T13:58:22;24.80;75.50
59855;DHT22;45732;52.850;6.896;2023-06-14T14:00:49;24.70;75.00
59855;DHT22;45732;52.850;6.896;2023-06-14T14:03:15;24.60;74.90
59855;DHT22;45732;52.850;6.896;2023-06-14T14:05:41;24.50;74.90
59855;DHT22;45732;52.850;6.896;2023-06-14T14:08:07;24.50;75.10
59855;DHT22;45732;52.850;6.896;2023-06-14T14:10:32;24.40;75.50
59855;DHT22;45732;52.850;6.896;2023-06-14T14:12:58;24.40;75.30
59855;DHT22;45732;52.850;6.896;2023-06-14T14:15:25;24.50;75.10
59855;DHT22;45732;52.850;6.896;2023-06-14T14:17:51;24.50;75.50
59855;DHT22;45732;52.850;6.896;2023-06-14T14:20:17;24.50;75.30
59855;DHT22;45732;52.850;6.896;2023-06-14T14:22:43;24.40;75.30
59855;DHT22;45732;52.850;6.896;2023-06-14T14:25:09;24.40;75.50
59855;DHT22;45732;52.850;6.896;2023-06-14T14:27:36;24.30;75.40
59855;DHT22;45732;52.850;6.896;2023-06-14T14:30:03;24.40;75.30
59855;DHT22;45732;52.850;6.896;2023-06-14T14:32:29;24.30;75.00
59855;DHT22;45732;52.850;6.896;2023-06-14T14:34:55;24.30;75.40
59855;DHT22;45732;52.850;6.896;2023-06-14T14:37:20;24.40;75.10
59855;DHT22;45732;52.850;6.896;2023-06-14T14:39:46;24.40;75.10
59855;DHT22;45732;52.850;6.896;2023-06-14T14:42:12;24.40;75.10
59855;DHT22;45732;52.850;6.896;2023-06-14T14:44:39;24.50;75.30
59855;DHT22;45732;52.850;6.896;2023-06-14T14:47:05;24.50;75.30
59855;DHT22;45732;52.850;6.896;2023-06-14T14:49:31;24.50;74.90
59855;DHT22;45732;52.850;6.896;2023-06-14T14:51:57;24.50;75.90
59855;DHT22;45732;52.850;6.896;2023-06-14T14:54:23;24.60;75.40
59855;DHT22;45732;52.850;6.896;2023-06-14T14:56:50;24.70;75.20
59855;DHT22;45732;52.850;6.896;2023-06-14T14:59:16;24.70;74.70
59855;DHT22;45732;52.850;6.896;2023-06-14T15:01:42;24.70;74.10
59855;DHT22;45732;52.850;6.896;2023-06-14T15:04:08;24.70;74.30
59855;DHT22;45732;52.850;6.896;2023-06-14T15:06:34;24.70;74.40
59855;DHT22;45732;52.850;6.896;2023-06-14T15:09:06;24.70;74.10
59855;DHT22;45732;52.850;6.896;2023-06-14T15:11:31;24.70;73.90
59855;DHT22;45732;52.850;6.896;2023-06-14T15:13:57;24.60;74.10
59855;DHT22;45732;52.850;6.896;2023-06-14T15:16:23;24.70;74.30
59855;DHT22;45732;52.850;6.896;2023-06-14T15:18:49;24.80;74.30
59855;DHT22;45732;52.850;6.896;2023-06-14T15:21:15;24.90;74.30
59855;DHT22;45732;52.850;6.896;2023-06-14T15:23:40;25.10;74.20
59855;DHT22;45732;52.850;6.896;2023-06-14T15:26:06;25.20;73.80
59855;DHT22;45732;52.850;6.896;2023-06-14T15:28:32;25.20;73.40
59855;DHT22;45732;52.850;6.896;2023-06-14T15:31:01;25.30;73.20
59855;DHT22;45732;52.850;6.896;2023-06-14T15:33:26;25.20;72.80
59855;DHT22;45732;52.850;6.896;2023-06-14T15:35:52;25.20;73.50
59855;DHT22;45732;52.850;6.896;2023-06-14T15:38:19;25.30;73.10
59855;DHT22;45732;52.850;6.896;2023-06-14T15:40:45;25.30;72.50
59855;DHT22;45732;52.850;6.896;2023-06-14T15:43:11;25.40;72.50
59855;DHT22;45732;52.850;6.896;2023-06-14T15:45:37;25.30;71.90
59855;DHT22;45732;52.850;6.896;2023-06-14T15:48:03;25.40;72.20
59855;DHT22;45732;52.850;6.896;2023-06-14T15:50:28;25.50;72.20
59855;DHT22;45732;52.850;6.896;2023-06-14T15:52:54;25.80;72.30
59855;DHT22;45732;52.850;6.896;2023-06-14T15:55:20;25.90;71.90
59855;DHT22;45732;52.850;6.896;2023-06-14T15:57:46;26.40;72.30
59855;DHT22;45732;52.850;6.896;2023-06-14T16:00:12;26.70;72.20
59855;DHT22;45732;52.850;6.896;2023-06-14T16:02:38;26.70;71.60
59855;DHT22;45732;52.850;6.896;2023-06-14T16:05:03;26.40;71.60
59855;DHT22;45732;52.850;6.896;2023-06-14T16:07:29;26.30;71.70
59855;DHT22;45732;52.850;6.896;2023-06-14T16:09:55;26.20;72.00
59855;DHT22;45732;52.850;6.896;2023-06-14T16:12:20;26.70;71.50
59855;DHT22;45732;52.850;6.896;2023-06-14T16:14:47;27.20;71.20
59855;DHT22;45732;52.850;6.896;2023-06-14T16:17:13;27.20;71.00
59855;DHT22;45732;52.850;6.896;2023-06-14T16:19:39;27.50;71.10
59855;DHT22;45732;52.850;6.896;2023-06-14T16:22:05;27.60;71.00
59855;DHT22;45732;52.850;6.896;2023-06-14T16:24:31;27.30;71.00
59855;DHT22;45732;52.850;6.896;2023-06-14T16:26:56;26.90;70.50
59855;DHT22;45732;52.850;6.896;2023-06-14T16:29:22;26.50;71.10
59855;DHT22;45732;52.850;6.896;2023-06-14T16:31:48;26.20;71.10
59855;DHT22;45732;52.850;6.896;2023-06-14T16:34:14;25.90;71.40
59855;DHT22;45732;52.850;6.896;2023-06-14T16:36:42;25.70;71.60
59855;DHT22;45732;52.850;6.896;2023-06-14T16:39:08;25.60;72.00
59855;DHT22;45732;52.850;6.896;2023-06-14T16:41:33;25.80;72.30
59855;DHT22;45732;52.850;6.896;2023-06-14T16:43:59;26.10;73.20
59855;DHT22;45732;52.850;6.896;2023-06-14T16:46:32;26.40;72.40
59855;DHT22;45732;52.850;6.896;2023-06-14T16:48:59;27.00;72.20
59855;DHT22;45732;52.850;6.896;2023-06-14T16:51:25;27.60;71.00
59855;DHT22;45732;52.850;6.896;2023-06-14T16:53:51;28.40;70.80
59855;DHT22;45732;52.850;6.896;2023-06-14T16:56:19;29.00;69.10
59855;DHT22;45732;52.850;6.896;2023-06-14T16:58:45;29.90;68.90
59855;DHT22;45732;52.850;6.896;2023-06-14T17:01:11;30.40;68.10
59855;DHT22;45732;52.850;6.896;2023-06-14T17:03:37;31.20;66.00
59855;DHT22;45732;52.850;6.896;2023-06-14T17:06:03;31.60;66.60
59855;DHT22;45732;52.850;6.896;2023-06-14T17:08:31;31.90;66.30
59855;DHT22;45732;52.850;6.896;2023-06-14T17:10:57;32.30;65.70
59855;DHT22;45732;52.850;6.896;2023-06-14T17:13:24;32.60;65.50
59855;DHT22;45732;52.850;6.896;2023-06-14T17:15:50;32.70;65.40
59855;DHT22;45732;52.850;6.896;2023-06-14T17:18:17;32.80;65.00
59855;DHT22;45732;52.850;6.896;2023-06-14T17:20:42;32.90;65.30
59855;DHT22;45732;52.850;6.896;2023-06-14T17:23:08;32.60;65.40
59855;DHT22;45732;52.850;6.896;2023-06-14T17:25:34;32.00;65.80
59855;DHT22;45732;52.850;6.896;2023-06-14T17:27:59;31.50;66.60
59855;DHT22;45732;52.850;6.896;2023-06-14T17:30:25;30.70;66.90
59855;DHT22;45732;52.850;6.896;2023-06-14T17:32:54;30.10;67.50
59855;DHT22;45732;52.850;6.896;2023-06-14T17:35:20;29.50;68.30
59855;DHT22;45732;52.850;6.896;2023-06-14T17:37:45;29.10;68.60
59855;DHT22;45732;52.850;6.896;2023-06-14T17:40:11;28.80;68.40
59855;DHT22;45732;52.850;6.896;2023-06-14T17:42:37;28.40;68.40
59855;DHT22;45732;52.850;6.896;2023-06-14T17:45:03;28.00;68.80
59855;DHT22;45732;52.850;6.896;2023-06-14T17:47:28;27.70;68.90
59855;DHT22;45732;52.850;6.896;2023-06-14T17:49:54;27.40;69.20
59855;DHT22;45732;52.850;6.896;2023-06-14T17:52:21;27.10;69.60
59855;DHT22;45732;52.850;6.896;2023-06-14T17:54:47;26.90;70.30
59855;DHT22;45732;52.850;6.896;2023-06-14T17:57:13;26.70;70.70
59855;DHT22;45732;52.850;6.896;2023-06-14T17:59:40;26.70;70.60
59855;DHT22;45732;52.850;6.896;2023-06-14T18:02:06;26.60;70.80
59855;DHT22;45732;52.850;6.896;2023-06-14T18:04:33;26.40;70.40
59855;DHT22;45732;52.850;6.896;2023-06-14T18:06:59;26.20;70.80
59855;DHT22;45732;52.850;6.896;2023-06-14T18:09:27;26.10;70.90
59855;DHT22;45732;52.850;6.896;2023-06-14T18:11:53;25.90;71.40
59855;DHT22;45732;52.850;6.896;2023-06-14T18:14:19;25.80;71.90
59855;DHT22;45732;52.850;6.896;2023-06-14T18:16:45;25.70;71.90
59855;DHT22;45732;52.850;6.896;2023-06-14T18:19:11;25.70;72.30
59855;DHT22;45732;52.850;6.896;2023-06-14T18:21:51;25.50;72.40
59855;DHT22;45732;52.850;6.896;2023-06-14T18:24:16;25.40;72.50
59855;DHT22;45732;52.850;6.896;2023-06-14T18:26:42;25.40;72.90
59855;DHT22;45732;52.850;6.896;2023-06-14T18:29:08;25.30;73.30
59855;DHT22;45732;52.850;6.896;2023-06-14T18:31:34;25.20;73.60
59855;DHT22;45732;52.850;6.896;2023-06-14T18:33:59;25.10;73.70
59855;DHT22;45732;52.850;6.896;2023-06-14T18:36:25;25.00;74.10
59855;DHT22;45732;52.850;6.896;2023-06-14T18:38:51;24.80;74.10
59855;DHT22;45732;52.850;6.896;2023-06-14T18:41:17;24.70;73.90
59855;DHT22;45732;52.850;6.896;2023-06-14T18:43:43;24.60;74.30
59855;DHT22;45732;52.850;6.896;2023-06-14T18:46:12;24.60;74.40
59855;DHT22;45732;52.850;6.896;2023-06-14T18:48:38;24.50;74.60
59855;DHT22;45732;52.850;6.896;2023-06-14T18:51:04;24.50;74.40
59855;DHT22;45732;52.850;6.896;2023-06-14T18:53:30;24.50;75.10
59855;DHT22;45732;52.850;6.896;2023-06-14T18:55:55;24.50;75.20
59855;DHT22;45732;52.850;6.896;2023-06-14T18:58:21;24.50;75.20
59855;DHT22;45732;52.850;6.896;2023-06-14T19:00:47;24.40;76.20
59855;DHT22;45732;52.850;6.896;2023-06-14T19:03:13;24.30;75.70
59855;DHT22;45732;52.850;6.896;2023-06-14T19:05:39;24.20;75.70
59855;DHT22;45732;52.850;6.896;2023-06-14T19:08:06;24.20;76.10
59855;DHT22;45732;52.850;6.896;2023-06-14T19:10:32;24.10;77.40
59855;DHT22;45732;52.850;6.896;2023-06-14T19:12:58;24.00;78.60
59855;DHT22;45732;52.850;6.896;2023-06-14T19:15:23;23.90;79.70
59855;DHT22;45732;52.850;6.896;2023-06-14T19:17:57;23.80;80.70
59855;DHT22;45732;52.850;6.896;2023-06-14T19:20:25;23.70;82.20
59855;DHT22;45732;52.850;6.896;2023-06-14T19:22:51;23.70;82.10
59855;DHT22;45732;52.850;6.896;2023-06-14T19:25:17;23.60;82.30
59855;DHT22;45732;52.850;6.896;2023-06-14T19:27:43;23.60;82.60
59855;DHT22;45732;52.850;6.896;2023-06-14T19:30:10;23.50;82.80
59855;DHT22;45732;52.850;6.896;2023-06-14T19:32:37;23.40;83.10
59855;DHT22;45732;52.850;6.896;2023-06-14T19:35:04;23.30;83.60
59855;DHT22;45732;52.850;6.896;2023-06-14T19:37:30;23.10;83.90
59855;DHT22;45732;52.850;6.896;2023-06-14T19:39:57;23.00;84.10
59855;DHT22;45732;52.850;6.896;2023-06-14T19:42:23;22.90;84.10
59855;DHT22;45732;52.850;6.896;2023-06-14T19:44:48;22.90;84.10
59855;DHT22;45732;52.850;6.896;2023-06-14T19:47:14;22.80;84.30
59855;DHT22;45732;52.850;6.896;2023-06-14T19:49:40;22.70;84.70
59855;DHT22;45732;52.850;6.896;2023-06-14T19:52:06;22.70;85.00
59855;DHT22;45732;52.850;6.896;2023-06-14T19:54:31;22.60;85.40
59855;DHT22;45732;52.850;6.896;2023-06-14T19:56:57;22.50;85.90
59855;DHT22;45732;52.850;6.896;2023-06-14T19:59:23;22.40;86.40
59855;DHT22;45732;52.850;6.896;2023-06-14T20:01:48;22.30;86.70
59855;DHT22;45732;52.850;6.896;2023-06-14T20:04:14;22.20;87.10